sensor_id;sensor_type;location;lat;lon;timestamp;P1;durP1;ratioP1;P2;durP2;ratioP2
81209;SDS011;70685;52.496;13.420;2023-08-24T00:00:17;6.55;;;3.83;;
81209;SDS011;70685;52.496;13.420;2023-08-24T00:02:48;9.40;;;3.90;;
81209;SDS011;70685;52.496;13.420;2023-08-24T00:05:13;4.40;;;3.80;;
81209;SDS011;70685;52.496;13.420;2023-08-24T00:07:39;4.00;;;3.70;;
81209;SDS011;70685;52.496;13.420;2023-08-24T00:10:06;4.45;;;3.92;;
81209;SDS011;70685;52.496;13.420;2023-08-24T00:12:32;8.75;;;4.28;;
81209;SDS011;70685;52.496;13.420;2023-08-24T00:15:00;4.10;;;3.70;;
81209;SDS011;70685;52.496;13.420;2023-08-24T00:17:26;5.40;;;4.03;;
81209;SDS011;70685;52.496;13.420;2023-08-24T00:19:51;4.38;;;3.97;;
81209;SDS011;70685;52.496;13.420;2023-08-24T00:22:17;6.28;;;4.53;;
81209;SDS011;70685;52.496;13.420;2023-08-24T00:24:45;4.55;;;4.15;;
81209;SDS011;70685;52.496;13.420;2023-08-24T00:27:13;4.97;;;4.15;;
81209;SDS011;70685;52.496;13.420;2023-08-24T00:29:39;4.13;;;3.72;;
81209;SDS011;70685;52.496;13.420;2023-08-24T00:32:05;5.28;;;4.25;;
81209;SDS011;70685;52.496;13.420;2023-08-24T00:34:31;7.60;;;6.90;;
81209;SDS011;70685;52.496;13.420;2023-08-24T00:36:57;7.13;;;6.43;;
81209;SDS011;70685;52.496;13.420;2023-08-24T00:39:23;5.43;;;4.93;;
81209;SDS011;70685;52.496;13.420;2023-08-24T00:41:48;7.20;;;4.65;;
81209;SDS011;70685;52.496;13.420;2023-08-24T00:44:14;5.30;;;4.70;;
81209;SDS011;70685;52.496;13.420;2023-08-24T00:46:40;7.45;;;4.70;;
81209;SDS011;70685;52.496;13.420;2023-08-24T00:49:06;5.10;;;4.30;;
81209;SDS011;70685;52.496;13.420;2023-08-24T00:51:32;4.88;;;4.40;;
81209;SDS011;70685;52.496;13.420;2023-08-24T00:54:00;4.60;;;4.20;;
81209;SDS011;70685;52.496;13.420;2023-08-24T00:56:32;4.57;;;4.28;;
81209;SDS011;70685;52.496;13.420;2023-08-24T00:59:01;5.82;;;4.57;;
81209;SDS011;70685;52.496;13.420;2023-08-24T01:01:30;5.72;;;4.50;;
81209;SDS011;70685;52.496;13.420;2023-08-24T01:03:55;4.63;;;4.23;;
81209;SDS011;70685;52.496;13.420;2023-08-24T01:06:25;7.47;;;4.07;;
81209;SDS011;70685;52.496;13.420;2023-08-24T01:08:51;5.60;;;4.18;;
81209;SDS011;70685;52.496;13.420;2023-08-24T01:14:12;6.00;;;4.22;;
81209;SDS011;70685;52.496;13.420;2023-08-24T01:16:39;4.50;;;4.10;;
81209;SDS011;70685;52.496;13.420;2023-08-24T01:19:25;4.55;;;4.25;;
81209;SDS011;70685;52.496;13.420;2023-08-24T01:21:56;7.18;;;4.40;;
81209;SDS011;70685;52.496;13.420;2023-08-24T01:24:40;4.65;;;4.18;;
81209;SDS011;70685;52.496;13.420;2023-08-24T01:27:11;5.13;;;4.13;;
81209;SDS011;70685;52.496;13.420;2023-08-24T01:29:38;4.90;;;4.40;;
81209;SDS011;70685;52.496;13.420;2023-08-24T01:32:05;3.83;;;3.47;;
81209;SDS011;70685;52.496;13.420;2023-08-24T01:34:36;5.28;;;4.03;;
81209;SDS011;70685;52.496;13.420;2023-08-24T01:37:05;5.00;;;4.35;;
81209;SDS011;70685;52.496;13.420;2023-08-24T01:39:37;5.25;;;3.60;;
81209;SDS011;70685;52.496;13.420;2023-08-24T01:42:07;4.03;;;3.75;;
81209;SDS011;70685;52.496;13.420;2023-08-24T01:44:37;4.30;;;3.42;;
81209;SDS011;70685;52.496;13.420;2023-08-24T01:47:09;3.97;;;3.30;;
81209;SDS011;70685;52.496;13.420;2023-08-24T01:49:37;7.40;;;3.53;;
81209;SDS011;70685;52.496;13.420;2023-08-24T01:52:04;6.03;;;3.58;;
81209;SDS011;70685;52.496;13.420;2023-08-24T01:54:31;5.50;;;3.63;;
81209;SDS011;70685;52.496;13.420;2023-08-24T01:56:57;6.35;;;3.53;;
81209;SDS011;70685;52.496;13.420;2023-08-24T01:59:23;4.70;;;4.40;;
81209;SDS011;70685;52.496;13.420;2023-08-24T02:01:48;3.85;;;3.55;;
81209;SDS011;70685;52.496;13.420;2023-08-24T02:04:16;5.13;;;3.60;;
81209;SDS011;70685;52.496;13.420;2023-08-24T02:06:42;4.05;;;3.75;;
81209;SDS011;70685;52.496;13.420;2023-08-24T02:09:07;4.07;;;3.78;;
81209;SDS011;70685;52.496;13.420;2023-08-24T02:11:33;6.78;;;4.50;;
81209;SDS011;70685;52.496;13.420;2023-08-24T02:14:03;5.72;;;4.50;;
81209;SDS011;70685;52.496;13.420;2023-08-24T02:16:29;4.30;;;3.90;;
81209;SDS011;70685;52.496;13.420;2023-08-24T02:18:57;5.72;;;4.18;;
81209;SDS011;70685;52.496;13.420;2023-08-24T02:21:23;4.72;;;4.10;;
81209;SDS011;70685;52.496;13.420;2023-08-24T02:23:48;4.43;;;3.95;;
81209;SDS011;70685;52.496;13.420;2023-08-24T02:26:16;4.55;;;4.05;;
81209;SDS011;70685;52.496;13.420;2023-08-24T02:28:44;6.53;;;4.40;;
81209;SDS011;70685;52.496;13.420;2023-08-24T02:31:10;5.77;;;5.33;;
81209;SDS011;70685;52.496;13.420;2023-08-24T02:33:35;5.07;;;4.18;;
81209;SDS011;70685;52.496;13.420;2023-08-24T02:36:01;5.78;;;5.25;;
81209;SDS011;70685;52.496;13.420;2023-08-24T02:38:30;5.22;;;4.72;;
81209;SDS011;70685;52.496;13.420;2023-08-24T02:41:01;5.50;;;5.00;;
81209;SDS011;70685;52.496;13.420;2023-08-24T02:43:30;4.97;;;4.53;;
81209;SDS011;70685;52.496;13.420;2023-08-24T02:46:02;5.13;;;4.60;;
81209;SDS011;70685;52.496;13.420;2023-08-24T02:48:31;5.40;;;4.90;;
81209;SDS011;70685;52.496;13.420;2023-08-24T02:50:57;5.00;;;4.70;;
81209;SDS011;70685;52.496;13.420;2023-08-24T02:53:24;6.25;;;4.53;;
81209;SDS011;70685;52.496;13.420;2023-08-24T02:55:52;6.22;;;5.07;;
81209;SDS011;70685;52.496;13.420;2023-08-24T02:58:21;9.48;;;5.32;;
81209;SDS011;70685;52.496;13.420;2023-08-24T03:00:51;5.72;;;4.78;;
81209;SDS011;70685;52.496;13.420;2023-08-24T03:03:19;5.78;;;4.50;;
81209;SDS011;70685;52.496;13.420;2023-08-24T03:08:24;4.53;;;4.22;;
81209;SDS011;70685;52.496;13.420;2023-08-24T03:10:50;4.40;;;4.07;;
81209;SDS011;70685;52.496;13.420;2023-08-24T03:13:16;4.90;;;4.60;;
81209;SDS011;70685;52.496;13.420;2023-08-24T03:15:42;10.77;;;4.57;;
81209;SDS011;70685;52.496;13.420;2023-08-24T03:18:16;5.93;;;4.28;;
81209;SDS011;70685;52.496;13.420;2023-08-24T03:20:42;4.97;;;4.57;;
81209;SDS011;70685;52.496;13.420;2023-08-24T03:23:09;4.75;;;4.40;;
81209;SDS011;70685;52.496;13.420;2023-08-24T03:25:38;4.93;;;4.13;;
81209;SDS011;70685;52.496;13.420;2023-08-24T03:28:05;4.28;;;4.00;;
81209;SDS011;70685;52.496;13.420;2023-08-24T03:30:35;4.40;;;4.10;;
81209;SDS011;70685;52.496;13.420;2023-08-24T03:33:07;4.80;;;4.30;;
81209;SDS011;70685;52.496;13.420;2023-08-24T03:35:35;4.18;;;3.97;;
81209;SDS011;70685;52.496;13.420;2023-08-24T03:38:03;4.10;;;3.70;;
81209;SDS011;70685;52.496;13.420;2023-08-24T03:40:29;4.43;;;3.88;;
81209;SDS011;70685;52.496;13.420;2023-08-24T03:42:55;3.63;;;3.42;;
81209;SDS011;70685;52.496;13.420;2023-08-24T04:27:00;6.93;;;3.58;;
81209;SDS011;70685;52.496;13.420;2023-08-24T06:38:58;2.40;;;2.20;;
81209;SDS011;70685;52.496;13.420;2023-08-24T06:41:40;2.47;;;2.38;;
81209;SDS011;70685;52.496;13.420;2023-08-24T06:44:16;2.85;;;2.30;;
81209;SDS011;70685;52.496;13.420;2023-08-24T06:46:42;2.13;;;2.03;;
81209;SDS011;70685;52.496;13.420;2023-08-24T06:49:11;2.53;;;2.33;;
81209;SDS011;70685;52.496;13.420;2023-08-24T06:51:39;3.25;;;2.15;;
81209;SDS011;70685;52.496;13.420;2023-08-24T06:54:37;8.20;;;2.22;;
81209;SDS011;70685;52.496;13.420;2023-08-24T06:57:07;2.05;;;1.95;;
81209;SDS011;70685;52.496;13.420;2023-08-24T06:59:33;2.33;;;2.10;;
81209;SDS011;70685;52.496;13.420;2023-08-24T07:01:59;4.40;;;2.20;;
81209;SDS011;70685;52.496;13.420;2023-08-24T07:11:53;5.80;;;2.30;;
81209;SDS011;70685;52.496;13.420;2023-08-24T07:21:13;5.63;;;2.40;;
81209;SDS011;70685;52.496;13.420;2023-08-24T07:36:59;9.43;;;2.60;;
81209;SDS011;70685;52.496;13.420;2023-08-24T07:39:25;6.57;;;2.50;;
81209;SDS011;70685;52.496;13.420;2023-08-24T07:41:54;6.35;;;2.83;;
81209;SDS011;70685;52.496;13.420;2023-08-24T07:47:40;5.40;;;2.50;;
81209;SDS011;70685;52.496;13.420;2023-08-24T07:50:06;2.75;;;2.10;;
81209;SDS011;70685;52.496;13.420;2023-08-24T07:56:12;7.90;;;2.55;;
81209;SDS011;70685;52.496;13.420;2023-08-24T07:59:13;2.78;;;2.38;;
81209;SDS011;70685;52.496;13.420;2023-08-24T08:05:21;3.08;;;1.85;;
81209;SDS011;70685;52.496;13.420;2023-08-24T08:18:41;2.83;;;2.60;;
81209;SDS011;70685;52.496;13.420;2023-08-24T08:25:12;5.60;;;3.83;;
81209;SDS011;70685;52.496;13.420;2023-08-24T08:35:02;7.78;;;2.47;;
81209;SDS011;70685;52.496;13.420;2023-08-24T08:41:11;7.15;;;2.30;;
81209;SDS011;70685;52.496;13.420;2023-08-24T08:47:15;3.33;;;3.03;;
81209;SDS011;70685;52.496;13.420;2023-08-24T08:50:34;6.13;;;2.85;;
81209;SDS011;70685;52.496;13.420;2023-08-24T08:53:05;3.38;;;1.85;;
81209;SDS011;70685;52.496;13.420;2023-08-24T08:57:59;3.08;;;2.33;;
81209;SDS011;70685;52.496;13.420;2023-08-24T09:00:29;3.40;;;2.40;;
81209;SDS011;70685;52.496;13.420;2023-08-24T09:03:00;6.07;;;2.22;;
81209;SDS011;70685;52.496;13.420;2023-08-24T09:05:27;2.45;;;2.13;;
81209;SDS011;70685;52.496;13.420;2023-08-24T09:07:54;6.95;;;2.17;;
81209;SDS011;70685;52.496;13.420;2023-08-24T09:10:21;5.00;;;2.33;;
81209;SDS011;70685;52.496;13.420;2023-08-24T09:12:48;3.75;;;2.13;;
81209;SDS011;70685;52.496;13.420;2023-08-24T09:15:13;5.95;;;2.42;;
81209;SDS011;70685;52.496;13.420;2023-08-24T09:17:42;2.63;;;2.28;;
81209;SDS011;70685;52.496;13.420;2023-08-24T09:20:09;2.70;;;2.03;;
81209;SDS011;70685;52.496;13.420;2023-08-24T09:22:35;1.75;;;1.55;;
81209;SDS011;70685;52.496;13.420;2023-08-24T09:25:03;4.32;;;1.88;;
81209;SDS011;70685;52.496;13.420;2023-08-24T09:27:33;3.92;;;1.95;;
81209;SDS011;70685;52.496;13.420;2023-08-24T09:29:59;2.22;;;2.13;;
81209;SDS011;70685;52.496;13.420;2023-08-24T09:32:29;2.65;;;1.98;;
81209;SDS011;70685;52.496;13.420;2023-08-24T09:35:01;2.00;;;1.80;;
81209;SDS011;70685;52.496;13.420;2023-08-24T09:37:35;2.22;;;1.73;;
81209;SDS011;70685;52.496;13.420;2023-08-24T09:40:02;2.60;;;1.73;;
81209;SDS011;70685;52.496;13.420;2023-08-24T09:42:37;1.55;;;1.40;;
81209;SDS011;70685;52.496;13.420;2023-08-24T09:45:13;1.63;;;1.50;;
81209;SDS011;70685;52.496;13.420;2023-08-24T09:47:52;1.70;;;1.58;;
81209;SDS011;70685;52.496;13.420;2023-08-24T09:50:20;3.75;;;1.60;;
81209;SDS011;70685;52.496;13.420;2023-08-24T09:52:47;3.53;;;1.30;;
81209;SDS011;70685;52.496;13.420;2023-08-24T09:55:18;1.80;;;1.58;;
81209;SDS011;70685;52.496;13.420;2023-08-24T09:57:49;3.13;;;1.55;;
81209;SDS011;70685;52.496;13.420;2023-08-24T10:00:19;6.22;;;1.75;;
81209;SDS011;70685;52.496;13.420;2023-08-24T10:05:20;1.70;;;1.58;;
81209;SDS011;70685;52.496;13.420;2023-08-24T10:07:55;3.25;;;1.63;;
81209;SDS011;70685;52.496;13.420;2023-08-24T10:10:22;1.63;;;1.50;;
81209;SDS011;70685;52.496;13.420;2023-08-24T10:12:51;1.75;;;1.45;;
81209;SDS011;70685;52.496;13.420;2023-08-24T10:15:24;3.08;;;1.58;;
81209;SDS011;70685;52.496;13.420;2023-08-24T10:17:52;3.95;;;1.75;;
81209;SDS011;70685;52.496;13.420;2023-08-24T10:20:22;3.50;;;1.80;;
81209;SDS011;70685;52.496;13.420;2023-08-24T10:22:49;2.30;;;1.35;;
81209;SDS011;70685;52.496;13.420;2023-08-24T10:25:18;3.43;;;1.60;;
81209;SDS011;70685;52.496;13.420;2023-08-24T10:27:45;9.88;;;1.75;;
81209;SDS011;70685;52.496;13.420;2023-08-24T10:30:13;4.05;;;1.58;;
81209;SDS011;70685;52.496;13.420;2023-08-24T10:32:40;5.07;;;1.90;;
81209;SDS011;70685;52.496;13.420;2023-08-24T10:35:10;4.63;;;1.50;;
81209;SDS011;70685;52.496;13.420;2023-08-24T10:37:40;1.42;;;1.20;;
81209;SDS011;70685;52.496;13.420;2023-08-24T10:40:10;4.80;;;1.98;;
81209;SDS011;70685;52.496;13.420;2023-08-24T10:42:45;2.83;;;1.45;;
81209;SDS011;70685;52.496;13.420;2023-08-24T10:45:15;2.42;;;1.60;;
81209;SDS011;70685;52.496;13.420;2023-08-24T10:47:51;13.93;;;2.15;;
81209;SDS011;70685;52.496;13.420;2023-08-24T10:50:20;2.72;;;1.77;;
81209;SDS011;70685;52.496;13.420;2023-08-24T10:55:25;1.73;;;1.48;;
81209;SDS011;70685;52.496;13.420;2023-08-24T10:58:01;1.70;;;1.60;;
81209;SDS011;70685;52.496;13.420;2023-08-24T11:00:28;1.95;;;1.83;;
81209;SDS011;70685;52.496;13.420;2023-08-24T11:03:00;6.30;;;1.85;;
81209;SDS011;70685;52.496;13.420;2023-08-24T11:05:27;1.80;;;1.70;;
81209;SDS011;70685;52.496;13.420;2023-08-24T11:07:57;1.95;;;1.85;;
81209;SDS011;70685;52.496;13.420;2023-08-24T11:11:09;1.70;;;1.60;;
81209;SDS011;70685;52.496;13.420;2023-08-24T11:15:41;2.67;;;2.15;;
81209;SDS011;70685;52.496;13.420;2023-08-24T11:20:55;4.47;;;1.80;;
81209;SDS011;70685;52.496;13.420;2023-08-24T11:23:27;6.45;;;1.70;;
81209;SDS011;70685;52.496;13.420;2023-08-24T11:25:57;8.02;;;1.80;;
81209;SDS011;70685;52.496;13.420;2023-08-24T11:28:25;3.30;;;1.73;;
81209;SDS011;70685;52.496;13.420;2023-08-24T11:30:57;1.90;;;1.80;;
81209;SDS011;70685;52.496;13.420;2023-08-24T11:33:27;3.95;;;1.88;;
81209;SDS011;70685;52.496;13.420;2023-08-24T11:35:57;2.22;;;1.80;;
81209;SDS011;70685;52.496;13.420;2023-08-24T11:38:23;6.10;;;1.83;;
81209;SDS011;70685;52.496;13.420;2023-08-24T11:40:51;2.55;;;1.70;;
81209;SDS011;70685;52.496;13.420;2023-08-24T11:43:24;5.07;;;2.10;;
81209;SDS011;70685;52.496;13.420;2023-08-24T11:45:53;3.75;;;2.03;;
81209;SDS011;70685;52.496;13.420;2023-08-24T11:48:25;2.20;;;2.10;;
81209;SDS011;70685;52.496;13.420;2023-08-24T11:50:54;3.63;;;1.90;;
81209;SDS011;70685;52.496;13.420;2023-08-24T11:53:21;5.13;;;2.28;;
81209;SDS011;70685;52.496;13.420;2023-08-24T11:55:51;2.65;;;2.38;;
81209;SDS011;70685;52.496;13.420;2023-08-24T11:58:17;3.28;;;1.88;;
81209;SDS011;70685;52.496;13.420;2023-08-24T12:00:43;2.22;;;2.00;;
81209;SDS011;70685;52.496;13.420;2023-08-24T12:03:13;5.82;;;2.13;;
81209;SDS011;70685;52.496;13.420;2023-08-24T12:05:47;7.55;;;3.65;;
81209;SDS011;70685;52.496;13.420;2023-08-24T12:08:15;2.50;;;2.20;;
81209;SDS011;70685;52.496;13.420;2023-08-24T12:10:41;2.38;;;2.17;;
81209;SDS011;70685;52.496;13.420;2023-08-24T12:13:08;4.32;;;2.20;;
81209;SDS011;70685;52.496;13.420;2023-08-24T12:15:35;3.85;;;2.25;;
81209;SDS011;70685;52.496;13.420;2023-08-24T12:23:10;2.30;;;2.10;;
81209;SDS011;70685;52.496;13.420;2023-08-24T12:25:37;4.80;;;2.10;;
81209;SDS011;70685;52.496;13.420;2023-08-24T12:28:08;3.47;;;2.20;;
81209;SDS011;70685;52.496;13.420;2023-08-24T12:30:49;6.22;;;2.30;;
81209;SDS011;70685;52.496;13.420;2023-08-24T12:33:25;2.92;;;1.90;;
81209;SDS011;70685;52.496;13.420;2023-08-24T12:35:57;3.22;;;2.00;;
81209;SDS011;70685;52.496;13.420;2023-08-24T12:38:25;2.38;;;1.80;;
81209;SDS011;70685;52.496;13.420;2023-08-24T12:40:52;2.35;;;2.15;;
81209;SDS011;70685;52.496;13.420;2023-08-24T12:43:18;2.40;;;1.92;;
81209;SDS011;70685;52.496;13.420;2023-08-24T12:45:44;2.67;;;2.35;;
81209;SDS011;70685;52.496;13.420;2023-08-24T12:48:12;3.20;;;1.98;;
81209;SDS011;70685;52.496;13.420;2023-08-24T12:50:40;2.25;;;2.00;;
81209;SDS011;70685;52.496;13.420;2023-08-24T12:53:06;4.97;;;2.00;;
81209;SDS011;70685;52.496;13.420;2023-08-24T12:55:35;2.50;;;1.98;;
81209;SDS011;70685;52.496;13.420;2023-08-24T12:58:05;2.15;;;2.03;;
81209;SDS011;70685;52.496;13.420;2023-08-24T13:00:30;3.53;;;1.83;;
81209;SDS011;70685;52.496;13.420;2023-08-24T13:02:58;3.33;;;2.10;;
81209;SDS011;70685;52.496;13.420;2023-08-24T13:05:27;5.80;;;2.13;;
81209;SDS011;70685;52.496;13.420;2023-08-24T13:07:52;3.90;;;1.75;;
81209;SDS011;70685;52.496;13.420;2023-08-24T13:10:23;4.15;;;2.00;;
81209;SDS011;70685;52.496;13.420;2023-08-24T13:12:50;2.33;;;2.08;;
81209;SDS011;70685;52.496;13.420;2023-08-24T13:15:17;2.00;;;1.90;;
81209;SDS011;70685;52.496;13.420;2023-08-24T13:17:43;4.72;;;2.40;;
81209;SDS011;70685;52.496;13.420;2023-08-24T13:20:09;2.58;;;2.15;;
81209;SDS011;70685;52.496;13.420;2023-08-24T13:22:35;3.78;;;2.03;;
81209;SDS011;70685;52.496;13.420;2023-08-24T13:25:00;2.53;;;2.30;;
81209;SDS011;70685;52.496;13.420;2023-08-24T13:27:26;2.88;;;2.25;;
81209;SDS011;70685;52.496;13.420;2023-08-24T13:29:55;4.00;;;2.25;;
81209;SDS011;70685;52.496;13.420;2023-08-24T13:32:27;5.55;;;2.50;;
81209;SDS011;70685;52.496;13.420;2023-08-24T13:34:53;2.40;;;2.20;;
81209;SDS011;70685;52.496;13.420;2023-08-24T13:39:47;1.92;;;1.83;;
81209;SDS011;70685;52.496;13.420;2023-08-24T13:42:13;4.25;;;1.90;;
81209;SDS011;70685;52.496;13.420;2023-08-24T13:44:38;11.75;;;2.65;;
81209;SDS011;70685;52.496;13.420;2023-08-24T13:47:04;8.70;;;2.78;;
81209;SDS011;70685;52.496;13.420;2023-08-24T13:49:33;2.90;;;2.60;;
81209;SDS011;70685;52.496;13.420;2023-08-24T13:51:59;2.75;;;2.55;;
81209;SDS011;70685;52.496;13.420;2023-08-24T13:54:24;3.13;;;2.92;;
81209;SDS011;70685;52.496;13.420;2023-08-24T13:56:52;2.20;;;1.90;;
81209;SDS011;70685;52.496;13.420;2023-08-24T13:59:19;5.68;;;2.30;;
81209;SDS011;70685;52.496;13.420;2023-08-24T14:01:46;4.85;;;2.30;;
81209;SDS011;70685;52.496;13.420;2023-08-24T14:04:11;5.63;;;2.25;;
81209;SDS011;70685;52.496;13.420;2023-08-24T14:06:39;2.30;;;2.20;;
81209;SDS011;70685;52.496;13.420;2023-08-24T14:09:05;6.28;;;2.20;;
81209;SDS011;70685;52.496;13.420;2023-08-24T14:11:31;2.35;;;2.08;;
81209;SDS011;70685;52.496;13.420;2023-08-24T14:13:57;4.20;;;2.25;;
81209;SDS011;70685;52.496;13.420;2023-08-24T14:16:24;2.17;;;1.95;;
81209;SDS011;70685;52.496;13.420;2023-08-24T14:18:51;4.43;;;3.60;;
81209;SDS011;70685;52.496;13.420;2023-08-24T14:21:17;4.15;;;2.30;;
81209;SDS011;70685;52.496;13.420;2023-08-24T14:26:13;4.38;;;2.10;;
81209;SDS011;70685;52.496;13.420;2023-08-24T14:31:18;2.67;;;2.25;;
81209;SDS011;70685;52.496;13.420;2023-08-24T14:33:45;6.22;;;2.83;;
81209;SDS011;70685;52.496;13.420;2023-08-24T14:41:09;2.13;;;1.92;;
81209;SDS011;70685;52.496;13.420;2023-08-24T14:43:36;4.68;;;2.45;;
81209;SDS011;70685;52.496;13.420;2023-08-24T14:46:04;3.28;;;2.30;;
81209;SDS011;70685;52.496;13.420;2023-08-24T14:48:31;2.33;;;2.13;;
81209;SDS011;70685;52.496;13.420;2023-08-24T14:50:56;4.80;;;2.00;;
81209;SDS011;70685;52.496;13.420;2023-08-24T14:53:23;3.13;;;1.98;;
81209;SDS011;70685;52.496;13.420;2023-08-24T14:55:50;2.58;;;2.40;;
81209;SDS011;70685;52.496;13.420;2023-08-24T14:58:17;3.58;;;2.40;;
81209;SDS011;70685;52.496;13.420;2023-08-24T15:00:45;3.55;;;2.20;;
81209;SDS011;70685;52.496;13.420;2023-08-24T15:03:14;2.15;;;2.05;;
81209;SDS011;70685;52.496;13.420;2023-08-24T15:05:44;2.63;;;2.10;;
81209;SDS011;70685;52.496;13.420;2023-08-24T15:08:14;2.38;;;2.17;;
81209;SDS011;70685;52.496;13.420;2023-08-24T15:13:08;3.25;;;1.98;;
81209;SDS011;70685;52.496;13.420;2023-08-24T15:15:44;2.38;;;2.08;;
81209;SDS011;70685;52.496;13.420;2023-08-24T15:18:10;2.10;;;2.00;;
81209;SDS011;70685;52.496;13.420;2023-08-24T15:20:41;3.55;;;2.30;;
81209;SDS011;70685;52.496;13.420;2023-08-24T15:23:09;2.67;;;1.98;;
81209;SDS011;70685;52.496;13.420;2023-08-24T15:25:35;11.55;;;2.30;;
81209;SDS011;70685;52.496;13.420;2023-08-24T15:28:04;2.03;;;1.92;;
81209;SDS011;70685;52.496;13.420;2023-08-24T15:30:30;4.95;;;2.05;;
81209;SDS011;70685;52.496;13.420;2023-08-24T15:32:57;3.70;;;2.20;;
81209;SDS011;70685;52.496;13.420;2023-08-24T15:35:25;2.17;;;1.98;;
81209;SDS011;70685;52.496;13.420;2023-08-24T15:37:51;6.60;;;2.30;;
81209;SDS011;70685;52.496;13.420;2023-08-24T15:40:17;2.50;;;2.22;;
81209;SDS011;70685;52.496;13.420;2023-08-24T15:42:44;2.15;;;2.05;;
81209;SDS011;70685;52.496;13.420;2023-08-24T15:45:12;3.45;;;2.20;;
81209;SDS011;70685;52.496;13.420;2023-08-24T15:47:44;2.47;;;2.38;;
81209;SDS011;70685;52.496;13.420;2023-08-24T15:50:10;4.68;;;1.92;;
81209;SDS011;70685;52.496;13.420;2023-08-24T15:52:35;3.20;;;2.67;;
81209;SDS011;70685;52.496;13.420;2023-08-24T15:55:01;2.60;;;2.00;;
81209;SDS011;70685;52.496;13.420;2023-08-24T15:57:29;2.78;;;2.60;;
81209;SDS011;70685;52.496;13.420;2023-08-24T15:59:55;4.30;;;2.25;;
81209;SDS011;70685;52.496;13.420;2023-08-24T16:02:20;4.47;;;2.42;;
81209;SDS011;70685;52.496;13.420;2023-08-24T16:04:46;4.25;;;2.20;;
81209;SDS011;70685;52.496;13.420;2023-08-24T16:07:14;3.80;;;2.47;;
81209;SDS011;70685;52.496;13.420;2023-08-24T16:09:42;3.03;;;2.30;;
81209;SDS011;70685;52.496;13.420;2023-08-24T16:12:10;7.00;;;2.40;;
81209;SDS011;70685;52.496;13.420;2023-08-24T16:14:38;2.35;;;2.17;;
81209;SDS011;70685;52.496;13.420;2023-08-24T16:17:04;3.53;;;2.00;;
81209;SDS011;70685;52.496;13.420;2023-08-24T16:19:29;3.15;;;2.50;;
81209;SDS011;70685;52.496;13.420;2023-08-24T16:21:55;2.63;;;2.42;;
81209;SDS011;70685;52.496;13.420;2023-08-24T16:24:20;2.97;;;2.42;;
81209;SDS011;70685;52.496;13.420;2023-08-24T16:26:51;3.40;;;3.10;;
81209;SDS011;70685;52.496;13.420;2023-08-24T16:29:16;3.35;;;2.53;;
81209;SDS011;70685;52.496;13.420;2023-08-24T16:31:42;3.30;;;3.05;;
81209;SDS011;70685;52.496;13.420;2023-08-24T16:34:07;3.67;;;3.00;;
81209;SDS011;70685;52.496;13.420;2023-08-24T16:36:36;5.88;;;4.53;;
81209;SDS011;70685;52.496;13.420;2023-08-24T16:39:05;4.72;;;2.75;;
81209;SDS011;70685;52.496;13.420;2023-08-24T16:41:33;3.08;;;2.13;;
81209;SDS011;70685;52.496;13.420;2023-08-24T16:44:01;2.83;;;2.53;;
81209;SDS011;70685;52.496;13.420;2023-08-24T16:46:27;7.43;;;2.92;;
81209;SDS011;70685;52.496;13.420;2023-08-24T16:48:53;2.70;;;2.50;;
81209;SDS011;70685;52.496;13.420;2023-08-24T16:51:23;8.25;;;2.83;;
81209;SDS011;70685;52.496;13.420;2023-08-24T16:53:51;11.75;;;2.92;;
81209;SDS011;70685;52.496;13.420;2023-08-24T16:56:17;6.70;;;2.38;;
81209;SDS011;70685;52.496;13.420;2023-08-24T16:58:43;3.22;;;2.60;;
81209;SDS011;70685;52.496;13.420;2023-08-24T17:01:09;3.28;;;2.80;;
81209;SDS011;70685;52.496;13.420;2023-08-24T17:03:38;3.75;;;2.53;;
81209;SDS011;70685;52.496;13.420;2023-08-24T17:06:03;3.30;;;2.97;;
81209;SDS011;70685;52.496;13.420;2023-08-24T17:08:32;3.55;;;2.55;;
81209;SDS011;70685;52.496;13.420;2023-08-24T17:11:00;2.97;;;2.78;;
81209;SDS011;70685;52.496;13.420;2023-08-24T17:13:30;5.13;;;3.05;;
81209;SDS011;70685;52.496;13.420;2023-08-24T17:15:58;2.85;;;2.40;;
81209;SDS011;70685;52.496;13.420;2023-08-24T17:18:24;7.57;;;3.08;;
81209;SDS011;70685;52.496;13.420;2023-08-24T17:20:50;4.53;;;3.20;;
81209;SDS011;70685;52.496;13.420;2023-08-24T17:23:15;3.33;;;3.13;;
81209;SDS011;70685;52.496;13.420;2023-08-24T17:25:41;4.07;;;3.50;;
81209;SDS011;70685;52.496;13.420;2023-08-24T17:28:13;4.90;;;3.13;;
81209;SDS011;70685;52.496;13.420;2023-08-24T17:30:44;4.45;;;3.63;;
81209;SDS011;70685;52.496;13.420;2023-08-24T17:33:11;3.25;;;2.95;;
81209;SDS011;70685;52.496;13.420;2023-08-24T17:35:40;4.47;;;4.05;;
81209;SDS011;70685;52.496;13.420;2023-08-24T17:38:05;5.00;;;4.40;;
81209;SDS011;70685;52.496;13.420;2023-08-24T17:40:36;6.15;;;4.80;;
81209;SDS011;70685;52.496;13.420;2023-08-24T17:43:10;5.65;;;4.72;;
81209;SDS011;70685;52.496;13.420;2023-08-24T17:45:35;5.97;;;5.50;;
81209;SDS011;70685;52.496;13.420;2023-08-24T17:48:02;4.43;;;3.60;;
81209;SDS011;70685;52.496;13.420;2023-08-24T17:50:28;4.40;;;4.05;;
81209;SDS011;70685;52.496;13.420;2023-08-24T17:52:54;7.20;;;6.55;;
81209;SDS011;70685;52.496;13.420;2023-08-24T17:55:22;8.52;;;7.70;;
81209;SDS011;70685;52.496;13.420;2023-08-24T17:57:47;9.00;;;6.25;;
81209;SDS011;70685;52.496;13.420;2023-08-24T18:00:20;6.43;;;5.93;;
81209;SDS011;70685;52.496;13.420;2023-08-24T18:02:45;6.38;;;5.88;;
81209;SDS011;70685;52.496;13.420;2023-08-24T18:05:11;8.82;;;4.50;;
81209;SDS011;70685;52.496;13.420;2023-08-24T18:07:39;8.95;;;6.00;;
81209;SDS011;70685;52.496;13.420;2023-08-24T18:10:04;5.32;;;4.80;;
81209;SDS011;70685;52.496;13.420;2023-08-24T18:12:33;5.68;;;5.32;;
81209;SDS011;70685;52.496;13.420;2023-08-24T18:15:01;7.60;;;5.95;;
81209;SDS011;70685;52.496;13.420;2023-08-24T18:17:27;8.77;;;7.35;;
81209;SDS011;70685;52.496;13.420;2023-08-24T18:19:55;6.78;;;5.05;;
81209;SDS011;70685;52.496;13.420;2023-08-24T18:22:21;12.10;;;7.05;;
81209;SDS011;70685;52.496;13.420;2023-08-24T18:24:49;7.93;;;7.15;;
81209;SDS011;70685;52.496;13.420;2023-08-24T18:27:17;6.38;;;5.50;;
81209;SDS011;70685;52.496;13.420;2023-08-24T18:30:05;4.45;;;3.97;;
81209;SDS011;70685;52.496;13.420;2023-08-24T18:32:31;7.53;;;5.82;;
81209;SDS011;70685;52.496;13.420;2023-08-24T18:34:57;8.85;;;7.70;;
81209;SDS011;70685;52.496;13.420;2023-08-24T18:37:23;10.98;;;8.73;;
81209;SDS011;70685;52.496;13.420;2023-08-24T18:39:49;11.18;;;9.88;;
81209;SDS011;70685;52.496;13.420;2023-08-24T18:42:17;11.27;;;10.07;;
81209;SDS011;70685;52.496;13.420;2023-08-24T18:44:46;16.15;;;12.27;;
81209;SDS011;70685;52.496;13.420;2023-08-24T18:47:12;13.00;;;9.75;;
81209;SDS011;70685;52.496;13.420;2023-08-24T18:49:40;14.97;;;9.93;;
81209;SDS011;70685;52.496;13.420;2023-08-24T18:52:05;13.75;;;8.38;;
81209;SDS011;70685;52.496;13.420;2023-08-24T18:54:34;14.50;;;10.18;;
81209;SDS011;70685;52.496;13.420;2023-08-24T18:56:59;12.15;;;8.27;;
81209;SDS011;70685;52.496;13.420;2023-08-24T18:59:28;10.43;;;9.45;;
81209;SDS011;70685;52.496;13.420;2023-08-24T19:01:55;11.65;;;9.18;;
81209;SDS011;70685;52.496;13.420;2023-08-24T19:04:21;22.77;;;9.30;;
81209;SDS011;70685;52.496;13.420;2023-08-24T19:06:47;8.05;;;7.00;;
81209;SDS011;70685;52.496;13.420;2023-08-24T19:09:17;15.43;;;8.13;;
81209;SDS011;70685;52.496;13.420;2023-08-24T19:11:45;12.03;;;8.03;;
81209;SDS011;70685;52.496;13.420;2023-08-24T19:14:13;10.02;;;7.57;;
81209;SDS011;70685;52.496;13.420;2023-08-24T19:16:39;25.48;;;14.65;;